createdAt,value
2017-01-13T19:58:44.226Z,1.84
2017-01-13T19:59:05.915Z,1.92
2017-01-13T19:59:32.398Z,1.95
2017-01-13T19:59:54.081Z,2.00
2017-01-13T20:00:15.780Z,2.06
2017-01-13T20:00:37.471Z,2.07
2017-01-13T20:01:03.960Z,2.00
2017-01-13T20:01:25.665Z,1.93
2017-01-13T20:01:47.425Z,1.96
2017-01-13T20:02:09.138Z,1.98
2017-01-13T20:02:30.834Z,2.01
2017-01-13T20:02:52.545Z,2.02
2017-01-13T20:03:14.305Z,2.03
2017-01-13T20:03:36.012Z,2.07
2017-01-13T20:03:57.707Z,2.09
2017-01-13T20:04:19.419Z,2.10
2017-01-13T20:04:43.799Z,2.07
2017-01-13T20:05:10.286Z,2.01
2017-01-13T20:05:31.968Z,2.01
2017-01-13T20:05:53.681Z,2.01
2017-01-13T20:06:20.148Z,2.04
2017-01-13T20:06:41.839Z,2.05
2017-01-13T20:07:03.557Z,2.06
2017-01-13T20:07:25.266Z,2.06
2017-01-13T20:07:46.994Z,1.97
2017-01-13T20:08:13.496Z,2.00
2017-01-13T20:08:35.195Z,2.02
2017-01-13T20:08:56.894Z,2.08
2017-01-13T20:10:42.673Z,2.06
2017-01-13T20:11:37.643Z,1.99
2017-01-13T20:12:04.149Z,1.94
2017-01-13T20:12:25.871Z,1.92
2017-01-13T20:12:52.338Z,2.00
2017-01-13T20:13:14.060Z,2.05
2017-01-13T20:13:45.311Z,2.05
2017-01-13T20:14:07.033Z,2.05
2017-01-13T20:14:33.567Z,2.08
2017-01-13T20:14:55.287Z,2.10
2017-01-13T20:15:21.775Z,2.12
2017-01-13T20:15:43.541Z,2.13
2017-01-13T20:16:10.066Z,2.11
2017-01-13T20:16:31.810Z,2.12
2017-01-13T20:16:53.522Z,2.08
2017-01-13T20:17:20.010Z,1.96
2017-01-13T20:17:41.793Z,1.93
2017-01-13T20:18:13.047Z,1.96
2017-01-13T20:18:34.779Z,2.02
2017-01-13T20:19:06.031Z,2.00
2017-01-13T20:19:27.738Z,2.03
2017-01-13T20:19:58.999Z,2.06
2017-01-13T20:20:20.692Z,2.07
2017-01-13T20:20:51.959Z,2.09
2017-01-13T20:21:13.674Z,2.09
2017-01-13T20:21:35.378Z,2.10
2017-01-13T20:22:01.866Z,2.08
2017-01-13T20:22:23.582Z,2.09
2017-01-13T20:22:50.100Z,2.12
2017-01-13T20:23:11.825Z,2.11
2017-01-13T20:24:19.111Z,2.06
2017-01-13T20:24:40.842Z,2.01
2017-01-13T20:25:07.349Z,2.03
2017-01-13T20:25:29.080Z,2.01
2017-01-13T20:25:50.836Z,2.02
2017-01-13T20:26:22.106Z,2.03
2017-01-13T20:26:43.832Z,2.07
2017-01-13T20:27:15.098Z,2.06
2017-01-13T20:27:36.810Z,2.05
2017-01-13T20:28:08.057Z,2.10
2017-01-13T20:28:29.763Z,2.12
2017-01-13T20:29:01.006Z,2.11
2017-01-13T20:29:22.719Z,2.09
2017-01-13T20:29:53.990Z,2.12
2017-01-13T20:30:15.709Z,2.08
2017-01-13T20:30:46.984Z,2.05
2017-01-13T20:31:08.740Z,2.05
2017-01-13T20:31:30.452Z,2.07
2017-01-13T20:32:37.759Z,2.09
2017-01-13T20:32:59.467Z,2.07
2017-01-13T20:33:21.170Z,2.06
2017-01-13T20:33:52.428Z,2.07
2017-01-13T20:34:14.123Z,2.10
2017-01-13T20:34:40.594Z,2.11
2017-01-13T20:35:02.283Z,2.04
2017-01-13T20:35:28.779Z,2.04
2017-01-13T20:35:50.523Z,2.03
2017-01-13T20:36:17.044Z,2.04
2017-01-13T20:36:38.777Z,2.05
2017-01-13T20:37:00.507Z,2.07
2017-01-13T20:38:07.782Z,2.04
2017-01-13T20:38:29.498Z,2.00
2017-01-13T20:39:32.065Z,1.92
2017-01-13T20:39:58.596Z,1.97
2017-01-13T20:40:20.322Z,1.99
2017-01-13T20:40:42.040Z,2.00
2017-01-13T20:41:08.516Z,2.00
2017-01-13T20:41:30.233Z,2.00
2017-01-13T20:42:01.495Z,2.01
2017-01-13T20:42:23.202Z,2.04
2017-01-13T20:42:44.905Z,2.03
2017-01-13T20:43:16.169Z,2.07
2017-01-13T20:43:37.889Z,2.03
2017-01-13T20:44:09.140Z,2.04
2017-01-13T20:44:30.843Z,2.05
2017-01-13T20:44:52.559Z,2.06
2017-01-13T20:45:19.054Z,2.07
2017-01-13T20:45:40.770Z,2.05
2017-01-13T20:46:02.481Z,2.08
2017-01-13T20:46:28.965Z,2.11
2017-01-13T20:46:50.712Z,2.12
2017-01-13T20:47:21.966Z,2.15
2017-01-13T20:47:43.713Z,2.16
2017-01-13T20:48:05.423Z,2.11
2017-01-13T20:48:36.686Z,2.11
2017-01-13T20:48:58.427Z,2.10
2017-01-13T20:49:29.674Z,2.10
2017-01-13T20:49:51.397Z,2.07
2017-01-13T20:50:22.653Z,2.07
2017-01-13T20:50:44.406Z,2.06
2017-01-13T20:51:06.204Z,2.08
2017-01-13T20:51:37.462Z,2.02
2017-01-13T20:51:59.245Z,1.99
2017-01-13T20:52:20.994Z,1.97
2017-01-13T20:52:52.241Z,1.95
2017-01-13T20:53:23.512Z,1.94
2017-01-13T20:54:26.623Z,1.97
2017-01-13T20:54:48.350Z,2.03
2017-01-13T20:55:14.844Z,2.06
2017-01-13T20:55:36.585Z,2.05
2017-01-13T20:56:03.063Z,2.03
2017-01-13T20:56:24.774Z,2.04
2017-01-13T20:57:00.829Z,2.00
2017-01-13T20:57:27.892Z,2.00
2017-01-13T20:57:49.614Z,2.02
2017-01-13T20:58:16.100Z,1.99
2017-01-13T20:58:37.816Z,1.98
2017-01-13T21:00:01.329Z,1.99
2017-01-13T21:00:27.851Z,2.04
2017-01-13T21:00:49.560Z,2.04
2017-01-13T21:01:11.283Z,2.08
2017-01-13T21:01:42.544Z,2.05
2017-01-13T21:02:04.306Z,2.06
2017-01-13T21:02:30.799Z,2.05
2017-01-13T21:02:52.507Z,2.05
2017-01-13T21:03:59.800Z,2.07
2017-01-13T21:04:21.509Z,2.03
2017-01-13T21:04:57.550Z,1.98
2017-01-13T21:05:46.463Z,2.04
2017-01-13T21:06:12.956Z,2.06
2017-01-13T21:06:34.673Z,2.04
2017-01-13T21:06:56.380Z,2.00
2017-01-13T21:07:22.862Z,2.00
2017-01-13T21:07:44.566Z,2.00
2017-01-13T21:08:06.272Z,2.00
2017-01-13T21:08:27.997Z,1.96
2017-01-13T21:08:49.730Z,1.94
2017-01-13T21:09:21.007Z,1.96
2017-01-13T21:09:42.731Z,1.92
2017-01-13T21:10:04.443Z,1.92
2017-01-13T21:10:30.926Z,1.94
2017-01-13T21:10:52.633Z,1.95
2017-01-13T21:11:14.368Z,1.94
2017-01-13T21:11:40.869Z,1.94
2017-01-13T21:12:02.588Z,1.94
2017-01-13T21:12:29.086Z,1.94
2017-01-13T21:12:50.822Z,1.94
2017-01-13T21:14:02.885Z,2.03
2017-01-13T21:14:24.606Z,2.00
2017-01-13T21:14:55.855Z,2.03
2017-01-13T21:15:17.569Z,2.00
2017-01-13T21:15:53.621Z,1.86
2017-01-13T21:16:37.769Z,1.89
2017-01-13T21:17:04.234Z,1.91
2017-01-13T21:17:25.950Z,1.94
2017-01-13T21:17:47.653Z,1.97
2017-01-13T21:18:18.913Z,2.01
2017-01-13T21:18:40.696Z,2.05
2017-01-13T21:19:47.995Z,1.98
2017-01-13T21:20:09.762Z,1.97
2017-01-13T21:21:38.249Z,1.98
2017-01-13T21:21:59.948Z,2.00
2017-01-13T21:22:21.660Z,2.02
2017-01-13T21:22:57.689Z,2.05
2017-01-13T21:23:19.977Z,2.04
2017-01-13T21:23:41.707Z,2.04
2017-01-13T21:24:08.193Z,2.04
2017-01-13T21:24:29.896Z,1.97
2017-01-13T21:25:01.158Z,2.02
2017-01-13T21:25:27.637Z,2.01
2017-01-13T21:25:49.331Z,2.04
2017-01-13T21:26:11.035Z,2.01
2017-01-13T21:26:32.735Z,2.03
2017-01-13T21:26:54.443Z,1.98
2017-01-13T21:27:16.149Z,1.91
2017-01-13T21:27:37.835Z,1.93
2017-01-13T21:28:09.087Z,1.91
2017-01-13T21:28:30.776Z,1.89
2017-01-13T21:28:54.594Z,1.92
2017-01-13T21:29:16.190Z,1.95
2017-01-13T21:29:37.908Z,1.98
2017-01-13T21:30:09.167Z,2.02
2017-01-13T21:30:30.860Z,2.05
2017-01-13T21:30:52.566Z,2.06
2017-01-13T21:31:14.270Z,2.07
2017-01-13T21:31:35.976Z,2.05
2017-01-13T21:31:57.676Z,2.00
2017-01-13T21:32:19.399Z,2.02
2017-01-13T21:32:50.656Z,2.04
2017-01-13T21:33:12.384Z,2.00
2017-01-13T21:33:34.091Z,2.01
2017-01-13T21:34:00.556Z,2.03
2017-01-13T21:34:22.253Z,2.01
2017-01-13T21:34:48.731Z,2.01
2017-01-13T21:35:10.424Z,2.01
2017-01-13T21:35:32.129Z,2.04
2017-01-13T21:35:58.608Z,1.98
2017-01-13T21:36:23.285Z,1.93
2017-01-13T21:36:49.766Z,1.90
2017-01-13T21:37:11.454Z,1.86
2017-01-13T21:37:37.925Z,1.86
2017-01-13T21:38:26.097Z,1.85
2017-01-13T21:38:47.800Z,1.90
2017-01-13T21:39:14.284Z,1.85
2017-01-13T21:39:35.979Z,1.89
2017-01-13T21:39:57.707Z,1.86
2017-01-13T21:40:19.413Z,1.88
2017-01-13T21:40:41.111Z,1.91
2017-01-13T21:41:07.597Z,1.93
2017-01-13T21:41:29.300Z,1.91
2017-01-13T21:41:50.985Z,1.89
2017-01-13T21:42:22.245Z,1.93
2017-01-13T21:42:43.947Z,1.94
2017-01-13T21:43:05.659Z,1.93
2017-01-13T21:43:27.358Z,1.94
2017-01-13T21:43:49.052Z,1.93
2017-01-13T21:44:10.747Z,1.93
2017-01-13T21:44:32.452Z,1.92
2017-01-13T21:44:54.194Z,1.96
2017-01-13T21:46:01.435Z,2.00
2017-01-13T21:46:23.129Z,2.01
2017-01-13T21:46:44.837Z,1.97
2017-01-13T21:47:11.323Z,1.97
2017-01-13T21:47:33.017Z,1.93
2017-01-13T21:47:59.487Z,1.92
2017-01-13T21:48:21.196Z,1.95
2017-01-13T21:48:42.907Z,1.97
2017-01-13T21:49:18.939Z,1.84
2017-01-13T21:49:41.214Z,1.87
2017-01-13T21:50:02.925Z,1.89
2017-01-13T21:50:24.614Z,1.95
2017-01-13T21:50:51.099Z,1.95
2017-01-13T21:51:12.786Z,1.96
2017-01-13T21:51:34.480Z,1.95
2017-01-13T21:51:58.267Z,1.93
2017-01-13T21:52:19.894Z,1.97
2017-01-13T21:52:41.600Z,1.97
2017-01-13T21:53:03.310Z,1.94
2017-01-13T21:53:25.016Z,1.92
2017-01-13T21:53:51.517Z,1.92
2017-01-13T21:54:13.187Z,1.90
2017-01-13T21:54:42.229Z,1.84
2017-01-13T21:55:03.945Z,1.86
2017-01-13T21:55:35.194Z,1.85
2017-01-13T21:55:56.889Z,1.85
2017-01-13T21:56:23.378Z,1.85
2017-01-13T21:56:45.070Z,1.86
2017-01-13T21:57:06.782Z,1.87
2017-01-13T21:57:28.491Z,1.86
2017-01-13T21:57:50.181Z,1.86
2017-01-13T21:58:16.663Z,1.86
2017-01-13T21:58:38.380Z,1.90
2017-01-13T21:59:00.085Z,1.89
2017-01-13T21:59:21.794Z,1.85
2017-01-13T21:59:43.489Z,1.89
2017-01-13T22:00:05.225Z,1.86
2017-01-13T22:00:26.930Z,1.87
2017-01-13T22:00:48.639Z,1.89
2017-01-13T22:01:10.336Z,1.87
2017-01-13T22:01:32.034Z,1.80
2017-01-13T22:01:53.739Z,1.79
2017-01-13T22:02:15.439Z,1.77
2017-01-13T22:02:37.141Z,1.79
2017-01-13T22:03:00.843Z,1.77
2017-01-13T22:03:22.541Z,1.75
2017-01-13T22:03:44.252Z,1.72
2017-01-13T22:04:15.510Z,1.72
2017-01-13T22:04:37.199Z,1.72
2017-01-13T22:04:58.911Z,1.72
2017-01-13T22:05:20.670Z,1.62
2017-01-13T22:05:42.368Z,1.67
2017-01-13T22:06:08.835Z,1.72
2017-01-13T22:06:33.532Z,1.74
2017-01-13T22:07:00.021Z,1.74
2017-01-13T22:07:22.037Z,1.76
2017-01-13T22:07:43.743Z,1.70
2017-01-13T22:08:14.993Z,1.70
2017-01-13T22:08:36.702Z,1.69
2017-01-13T22:08:58.405Z,1.71
2017-01-13T22:09:20.108Z,1.73
2017-01-13T22:09:41.798Z,1.68
2017-01-13T22:10:03.513Z,1.68
2017-01-13T22:10:29.989Z,1.64
2017-01-13T22:10:51.776Z,1.68
2017-01-13T22:11:13.474Z,1.65
2017-01-13T22:11:35.188Z,1.62
2017-01-13T22:11:56.892Z,1.67
2017-01-13T22:12:23.379Z,1.66
2017-01-13T22:12:45.079Z,1.68
2017-01-13T22:13:06.777Z,1.63
2017-01-13T22:13:33.259Z,1.66
2017-01-13T22:13:54.946Z,1.65
2017-01-13T22:14:16.669Z,1.62
2017-01-13T22:14:43.160Z,1.62
2017-01-13T22:15:04.882Z,1.64
2017-01-13T22:15:26.627Z,1.64
2017-01-13T22:15:48.347Z,1.68
2017-01-13T22:16:10.043Z,1.65
2017-01-13T22:16:31.749Z,1.63
2017-01-13T22:16:53.452Z,1.62
2017-01-13T22:17:15.143Z,1.61
2017-01-13T22:17:36.863Z,1.60
2017-01-13T22:18:03.369Z,1.59
2017-01-13T22:18:25.049Z,1.60
2017-01-13T22:18:56.295Z,1.56
2017-01-13T22:19:17.995Z,1.60
2017-01-13T22:19:39.709Z,1.61
2017-01-13T22:20:01.418Z,1.59
2017-01-13T22:20:23.107Z,1.51
2017-01-13T22:20:44.797Z,1.47
2017-01-13T22:21:06.508Z,1.41
2017-01-13T22:21:28.217Z,1.34
2017-01-13T22:21:49.916Z,1.32
2017-01-13T22:22:16.411Z,1.31
2017-01-13T22:22:38.082Z,1.18
2017-01-13T22:23:04.562Z,1.20
2017-01-13T22:23:26.266Z,1.28
2017-01-13T22:23:57.528Z,1.32
2017-01-13T22:24:19.346Z,1.22
2017-01-13T22:24:45.848Z,1.17
2017-01-13T22:25:07.551Z,1.23
2017-01-13T22:25:29.292Z,1.23
2017-01-13T22:25:55.768Z,1.09
2017-01-13T22:26:17.467Z,1.06
2017-01-13T22:26:39.177Z,1.07
2017-01-13T22:27:00.875Z,1.08
2017-01-13T22:27:22.587Z,1.10
2017-01-13T22:27:49.071Z,1.20
2017-01-13T22:28:10.793Z,1.23
2017-01-13T22:28:32.575Z,1.24
2017-01-13T22:29:03.743Z,1.16
2017-01-13T22:29:25.440Z,1.18
2017-01-13T22:29:58.860Z,1.08
2017-01-13T22:30:27.705Z,1.10
2017-01-13T22:30:51.418Z,1.13
2017-01-13T22:31:13.154Z,1.10
2017-01-13T22:31:44.424Z,1.14
2017-01-13T22:32:06.107Z,1.15
2017-01-13T22:32:27.823Z,1.15
2017-01-13T22:33:16.012Z,1.00
2017-01-13T22:33:42.492Z,0.96
2017-01-13T22:34:04.257Z,0.99
2017-01-13T22:35:11.588Z,0.97
2017-01-13T22:35:33.273Z,0.90
2017-01-13T22:35:59.794Z,0.84
2017-01-13T22:36:21.554Z,0.82
2017-01-13T22:36:57.567Z,0.90
2017-01-13T22:37:19.910Z,0.80
2017-01-13T22:37:41.615Z,0.80
2017-01-13T22:38:03.285Z,0.88
2017-01-13T22:38:34.535Z,0.95
2017-01-13T22:38:56.229Z,0.95
2017-01-13T22:39:17.939Z,1.02
2017-01-13T22:39:39.653Z,1.06
2017-01-13T22:40:01.366Z,1.10
2017-01-13T22:40:23.241Z,1.10
2017-01-13T22:40:45.039Z,1.03
2017-01-13T22:41:06.740Z,1.06
2017-01-13T22:41:33.247Z,0.92
2017-01-13T22:41:55.119Z,0.96
2017-01-13T22:42:16.828Z,1.00
2017-01-13T22:42:43.313Z,1.02
2017-01-13T22:43:05.114Z,1.03
2017-01-13T22:44:07.637Z,0.86
2017-01-13T22:44:29.327Z,0.82
2017-01-13T22:44:55.829Z,0.93
2017-01-13T22:45:17.525Z,0.94
2017-01-13T22:46:24.839Z,0.99
2017-01-13T22:46:46.550Z,1.00
2017-01-13T22:47:13.048Z,1.03
2017-01-13T22:47:34.806Z,1.05
2017-01-13T22:48:37.330Z,0.91
2017-01-13T22:49:03.808Z,0.97
2017-01-13T22:49:25.509Z,0.91
2017-01-13T22:49:52.009Z,0.94
2017-01-13T22:50:13.708Z,0.96
2017-01-13T22:51:16.214Z,0.96
2017-01-13T22:51:37.941Z,1.03
2017-01-13T22:51:59.644Z,1.03
2017-01-13T22:52:35.698Z,0.97
2017-01-13T22:53:17.833Z,1.01
2017-01-13T22:53:39.558Z,1.05
2017-01-13T22:54:01.266Z,1.06
2017-01-13T22:54:32.512Z,0.99
2017-01-13T22:54:54.208Z,0.96
2017-01-13T22:55:20.697Z,1.00
2017-01-13T22:55:42.395Z,0.96
2017-01-13T22:56:08.876Z,0.97
2017-01-13T22:56:30.591Z,1.03
2017-01-13T22:56:57.080Z,1.07
2017-01-13T22:57:18.783Z,1.04
2017-01-13T22:57:40.508Z,1.04
2017-01-13T22:58:02.223Z,1.01
2017-01-13T22:58:23.957Z,0.96
2017-01-13T22:58:45.648Z,0.94
2017-01-13T22:59:07.386Z,0.93
2017-01-13T22:59:33.858Z,0.89
2017-01-13T22:59:55.562Z,0.88
2017-01-13T23:00:22.048Z,0.83
2017-01-13T23:00:43.737Z,0.89
2017-01-13T23:01:14.984Z,0.92
2017-01-13T23:01:36.692Z,0.91
2017-01-13T23:01:58.394Z,0.90
2017-01-13T23:02:24.863Z,0.86
2017-01-13T23:02:46.567Z,0.89
2017-01-13T23:03:13.054Z,0.91
2017-01-13T23:03:34.762Z,0.91
2017-01-13T23:03:56.474Z,0.86
2017-01-13T23:04:22.967Z,0.83
2017-01-13T23:04:44.739Z,0.87
2017-01-13T23:05:06.442Z,0.90
2017-01-13T23:05:28.151Z,0.90
2017-01-13T23:05:49.843Z,0.92
2017-01-13T23:06:16.319Z,0.89
2017-01-13T23:06:38.028Z,0.84
2017-01-13T23:06:59.818Z,0.83
2017-01-13T23:07:26.300Z,0.89
2017-01-13T23:07:48.009Z,0.91
2017-01-13T23:08:14.570Z,0.92
2017-01-13T23:08:36.387Z,0.96
2017-01-13T23:09:02.854Z,0.94
2017-01-13T23:09:24.633Z,0.92
2017-01-13T23:09:46.337Z,0.94
2017-01-13T23:10:12.903Z,0.90
2017-01-13T23:10:34.690Z,0.93
2017-01-13T23:11:01.286Z,1.00
2017-01-13T23:11:23.001Z,1.01
2017-01-13T23:11:44.701Z,1.00
2017-01-13T23:12:11.189Z,1.04
2017-01-13T23:12:32.889Z,1.06
2017-01-13T23:12:54.595Z,1.01
2017-01-13T23:13:16.290Z,0.99
2017-01-13T23:13:38.093Z,0.96
2017-01-13T23:13:59.793Z,0.94
2017-01-13T23:14:21.610Z,0.95
2017-01-13T23:14:43.431Z,0.95
2017-01-13T23:15:09.929Z,0.95
2017-01-13T23:15:31.721Z,0.91
2017-01-13T23:15:58.287Z,0.82
2017-01-13T23:16:20.121Z,0.86
2017-01-13T23:16:41.818Z,0.91
2017-01-13T23:17:03.516Z,0.89
2017-01-13T23:17:25.305Z,0.93
2017-01-13T23:17:47.116Z,0.96
2017-01-13T23:18:13.747Z,0.97
2017-01-13T23:18:35.484Z,0.97
2017-01-13T23:19:11.510Z,1.00
2017-01-13T23:19:38.561Z,0.96
2017-01-13T23:20:00.270Z,0.95
2017-01-13T23:20:31.527Z,1.00
2017-01-13T23:20:53.239Z,1.03
2017-01-13T23:21:14.963Z,1.00
2017-01-13T23:21:46.218Z,1.01
2017-01-13T23:22:07.940Z,1.03
2017-01-13T23:22:39.210Z,0.99
2017-01-13T23:23:00.950Z,0.99
2017-01-13T23:23:27.420Z,0.95
2017-01-13T23:23:49.158Z,0.94
2017-01-13T23:24:15.730Z,0.91
2017-01-13T23:24:37.530Z,0.93
2017-01-13T23:25:04.018Z,0.94
2017-01-13T23:25:25.843Z,0.97
2017-01-13T23:25:52.321Z,0.98
2017-01-13T23:26:14.132Z,0.98
2017-01-13T23:26:40.734Z,1.00
2017-01-13T23:27:16.774Z,1.00
2017-01-13T23:27:43.927Z,1.02
2017-01-13T23:28:06.644Z,1.04
2017-01-13T23:28:33.124Z,1.06
2017-01-13T23:28:54.846Z,1.03
2017-01-13T23:29:16.626Z,0.99
2017-01-13T23:29:43.183Z,1.00
2017-01-13T23:30:04.962Z,0.99
2017-01-13T23:30:31.440Z,0.96
2017-01-13T23:30:53.136Z,0.94
2017-01-13T23:31:14.841Z,0.99
2017-01-13T23:31:36.664Z,0.94
2017-01-13T23:31:58.342Z,0.96
2017-01-13T23:32:20.048Z,0.94
2017-01-13T23:32:51.303Z,1.00
2017-01-13T23:33:13.095Z,1.05
2017-01-13T23:33:44.352Z,1.05
2017-01-13T23:34:06.083Z,1.08
2017-01-13T23:34:27.884Z,1.09
2017-01-13T23:34:54.352Z,1.11
2017-01-13T23:35:16.048Z,1.06
2017-01-13T23:35:47.405Z,1.11
2017-01-13T23:36:09.094Z,1.11
2017-01-13T23:36:45.137Z,1.00
2017-01-13T23:37:12.201Z,1.00
2017-01-13T23:37:34.006Z,1.05
2017-01-13T23:37:55.725Z,1.09
2017-01-13T23:38:17.430Z,1.09
2017-01-13T23:38:39.123Z,1.13
2017-01-13T23:39:00.816Z,1.16
2017-01-13T23:39:22.537Z,1.11
2017-01-13T23:39:44.234Z,1.06
2017-01-13T23:40:20.266Z,1.04
2017-01-13T23:40:47.344Z,1.06
2017-01-13T23:41:09.033Z,1.05
2017-01-13T23:41:30.742Z,1.09
2017-01-13T23:41:52.627Z,1.09
2017-01-13T23:42:14.411Z,1.11
2017-01-13T23:42:36.205Z,1.11
2017-01-13T23:43:02.694Z,1.16
2017-01-13T23:43:24.381Z,1.15
2017-01-13T23:43:46.090Z,1.11
2017-01-13T23:44:07.782Z,1.09
2017-01-13T23:44:29.494Z,1.10
2017-01-13T23:44:51.200Z,1.15
2017-01-13T23:45:12.992Z,1.15
2017-01-13T23:45:34.780Z,1.19
2017-01-13T23:45:56.490Z,1.17
2017-01-13T23:46:18.190Z,1.16
2017-01-13T23:46:39.974Z,1.18
2017-01-13T23:47:01.677Z,1.14
2017-01-13T23:47:37.704Z,1.13
2017-01-13T23:48:04.861Z,1.16
2017-01-13T23:48:26.556Z,1.20
2017-01-13T23:48:48.268Z,1.24
2017-01-13T23:49:14.750Z,1.25
2017-01-13T23:49:36.464Z,1.16
2017-01-13T23:49:58.172Z,1.14
2017-01-13T23:50:19.876Z,1.17
2017-01-13T23:50:41.581Z,1.20
2017-01-13T23:51:03.289Z,1.19
2017-01-13T23:51:29.759Z,1.20
2017-01-13T23:51:51.455Z,1.19
2017-01-13T23:52:17.927Z,1.13
2017-01-13T23:52:39.624Z,1.16
2017-01-13T23:53:01.332Z,1.16
2017-01-13T23:53:23.033Z,1.21
2017-01-13T23:53:44.730Z,1.17
2017-01-13T23:54:06.431Z,1.17
2017-01-13T23:54:28.141Z,1.17
2017-01-13T23:54:49.863Z,1.13
2017-01-13T23:55:16.337Z,1.13
2017-01-13T23:55:38.039Z,1.13
2017-01-13T23:55:59.760Z,1.13
2017-01-13T23:56:26.231Z,1.16
2017-01-13T23:56:47.942Z,1.13
2017-01-13T23:57:14.480Z,1.09
2017-01-13T23:57:36.180Z,1.06
2017-01-13T23:57:57.879Z,1.09
2017-01-13T23:58:19.582Z,1.13
2017-01-13T23:58:41.274Z,1.12
2017-01-13T23:59:02.967Z,1.18
2017-01-13T23:59:34.212Z,1.25
2017-01-13T23:59:55.935Z,1.25
